You are listening to:
YSBK ATIS - Bankstown, New South Wales, Australia

YSSY 082030Z 29008KT 9999 FEW030 09/06 Q1010 NOSIG

If stream doesn't start automatically press the play button
If stream stops then reload player then press play